sensor_id;sensor_type;location;lat;lon;timestamp;temperature;humidity
41944;DHT22;27636;52.610;13.244;2023-03-14T00:01:43;11.70;99.90
41944;DHT22;27636;52.610;13.244;2023-03-14T00:06:47;11.50;99.90
41944;DHT22;27636;52.610;13.244;2023-03-14T00:11:50;11.60;99.90
41944;DHT22;27636;52.610;13.244;2023-03-14T00:16:55;11.50;99.90
41944;DHT22;27636;52.610;13.244;2023-03-14T00:21:58;11.50;99.90
41944;DHT22;27636;52.610;13.244;2023-03-14T00:27:01;11.30;99.90
41944;DHT22;27636;52.610;13.244;2023-03-14T00:32:06;11.20;99.90
41944;DHT22;27636;52.610;13.244;2023-03-14T00:37:09;11.20;99.90
41944;DHT22;27636;52.610;13.244;2023-03-14T00:42:14;11.20;99.90
41944;DHT22;27636;52.610;13.244;2023-03-14T00:47:18;11.10;99.90
41944;DHT22;27636;52.610;13.244;2023-03-14T00:52:22;11.20;99.90
41944;DHT22;27636;52.610;13.244;2023-03-14T00:57:26;11.20;99.90
41944;DHT22;27636;52.610;13.244;2023-03-14T01:02:31;11.20;99.90
41944;DHT22;27636;52.610;13.244;2023-03-14T01:07:34;11.20;99.90
41944;DHT22;27636;52.610;13.244;2023-03-14T01:12:38;11.20;99.90
41944;DHT22;27636;52.610;13.244;2023-03-14T01:17:43;11.20;99.90
41944;DHT22;27636;52.610;13.244;2023-03-14T01:22:46;11.10;99.90
41944;DHT22;27636;52.610;13.244;2023-03-14T01:27:49;11.10;99.90
41944;DHT22;27636;52.610;13.244;2023-03-14T01:32:54;11.20;99.90
41944;DHT22;27636;52.610;13.244;2023-03-14T01:37:58;11.20;99.90
41944;DHT22;27636;52.610;13.244;2023-03-14T01:43:11;11.10;99.90
41944;DHT22;27636;52.610;13.244;2023-03-14T01:48:16;11.00;99.90
41944;DHT22;27636;52.610;13.244;2023-03-14T01:53:20;11.10;99.90
41944;DHT22;27636;52.610;13.244;2023-03-14T01:58:27;11.00;99.90
41944;DHT22;27636;52.610;13.244;2023-03-14T02:03:35;11.00;99.90
41944;DHT22;27636;52.610;13.244;2023-03-14T02:08:40;11.10;99.90
41944;DHT22;27636;52.610;13.244;2023-03-14T02:13:51;11.20;99.90
41944;DHT22;27636;52.610;13.244;2023-03-14T02:18:58;11.10;99.90
41944;DHT22;27636;52.610;13.244;2023-03-14T02:24:17;11.10;99.90
41944;DHT22;27636;52.610;13.244;2023-03-14T02:29:29;11.10;99.90
41944;DHT22;27636;52.610;13.244;2023-03-14T02:34:36;11.00;99.90
41944;DHT22;27636;52.610;13.244;2023-03-14T02:39:42;11.00;99.90
41944;DHT22;27636;52.610;13.244;2023-03-14T02:44:52;11.20;99.90
41944;DHT22;27636;52.610;13.244;2023-03-14T02:50:00;11.30;99.90
41944;DHT22;27636;52.610;13.244;2023-03-14T02:55:06;11.30;99.90
41944;DHT22;27636;52.610;13.244;2023-03-14T03:00:14;11.40;99.90
41944;DHT22;27636;52.610;13.244;2023-03-14T03:05:18;11.20;99.90
41944;DHT22;27636;52.610;13.244;2023-03-14T03:10:21;11.20;99.90
41944;DHT22;27636;52.610;13.244;2023-03-14T03:15:26;11.10;99.90
41944;DHT22;27636;52.610;13.244;2023-03-14T03:20:31;10.80;99.90
41944;DHT22;27636;52.610;13.244;2023-03-14T03:25:34;10.70;99.90
41944;DHT22;27636;52.610;13.244;2023-03-14T03:30:41;10.70;99.90
41944;DHT22;27636;52.610;13.244;2023-03-14T03:35:47;10.60;99.90
41944;DHT22;27636;52.610;13.244;2023-03-14T03:40:55;10.60;99.90
41944;DHT22;27636;52.610;13.244;2023-03-14T03:46:04;10.60;99.90
41944;DHT22;27636;52.610;13.244;2023-03-14T03:51:12;10.60;99.90
41944;DHT22;27636;52.610;13.244;2023-03-14T03:56:15;10.70;99.90
41944;DHT22;27636;52.610;13.244;2023-03-14T04:01:21;10.60;99.90
41944;DHT22;27636;52.610;13.244;2023-03-14T04:06:28;10.60;99.90
41944;DHT22;27636;52.610;13.244;2023-03-14T04:11:34;10.60;99.90
41944;DHT22;27636;52.610;13.244;2023-03-14T04:16:51;10.60;99.90
41944;DHT22;27636;52.610;13.244;2023-03-14T04:21:56;10.70;99.90
41944;DHT22;27636;52.610;13.244;2023-03-14T04:27:02;10.70;99.90
41944;DHT22;27636;52.610;13.244;2023-03-14T04:32:08;10.80;99.90
41944;DHT22;27636;52.610;13.244;2023-03-14T04:37:14;10.80;99.90
41944;DHT22;27636;52.610;13.244;2023-03-14T04:42:20;10.90;99.90
41944;DHT22;27636;52.610;13.244;2023-03-14T04:47:25;10.70;99.90
41944;DHT22;27636;52.610;13.244;2023-03-14T04:52:30;10.80;99.90
41944;DHT22;27636;52.610;13.244;2023-03-14T04:57:35;10.50;99.90
41944;DHT22;27636;52.610;13.244;2023-03-14T05:02:40;10.60;99.90
41944;DHT22;27636;52.610;13.244;2023-03-14T05:07:57;10.60;99.90
41944;DHT22;27636;52.610;13.244;2023-03-14T05:13:13;10.70;99.90
41944;DHT22;27636;52.610;13.244;2023-03-14T05:18:36;10.70;99.90
41944;DHT22;27636;52.610;13.244;2023-03-14T05:23:50;10.70;99.90
41944;DHT22;27636;52.610;13.244;2023-03-14T05:29:07;10.80;99.90
41944;DHT22;27636;52.610;13.244;2023-03-14T05:34:31;10.70;99.90
41944;DHT22;27636;52.610;13.244;2023-03-14T05:39:47;10.80;99.90
41944;DHT22;27636;52.610;13.244;2023-03-14T05:45:11;10.70;99.90
41944;DHT22;27636;52.610;13.244;2023-03-14T05:50:29;10.70;99.90
41944;DHT22;27636;52.610;13.244;2023-03-14T05:55:51;10.80;99.90
41944;DHT22;27636;52.610;13.244;2023-03-14T06:01:23;10.70;99.90
41944;DHT22;27636;52.610;13.244;2023-03-14T06:06:42;10.90;99.90
41944;DHT22;27636;52.610;13.244;2023-03-14T06:11:47;10.90;99.90
41944;DHT22;27636;52.610;13.244;2023-03-14T06:16:50;11.00;99.90
41944;DHT22;27636;52.610;13.244;2023-03-14T06:21:57;11.10;99.90
41944;DHT22;27636;52.610;13.244;2023-03-14T06:27:01;11.20;99.90
41944;DHT22;27636;52.610;13.244;2023-03-14T06:32:06;11.30;99.90
41944;DHT22;27636;52.610;13.244;2023-03-14T06:37:11;11.40;99.90
41944;DHT22;27636;52.610;13.244;2023-03-14T06:42:15;11.60;99.90
41944;DHT22;27636;52.610;13.244;2023-03-14T06:47:20;11.70;99.90
41944;DHT22;27636;52.610;13.244;2023-03-14T06:52:25;12.00;99.90
41944;DHT22;27636;52.610;13.244;2023-03-14T06:57:28;12.00;99.90
41944;DHT22;27636;52.610;13.244;2023-03-14T07:02:32;12.20;99.90
41944;DHT22;27636;52.610;13.244;2023-03-14T07:07:57;12.40;99.90
41944;DHT22;27636;52.610;13.244;2023-03-14T07:13:04;12.70;99.90
41944;DHT22;27636;52.610;13.244;2023-03-14T07:18:13;12.50;99.90
41944;DHT22;27636;52.610;13.244;2023-03-14T07:23:18;12.40;99.90
41944;DHT22;27636;52.610;13.244;2023-03-14T07:28:25;12.50;99.90
41944;DHT22;27636;52.610;13.244;2023-03-14T07:33:39;13.00;99.90
41944;DHT22;27636;52.610;13.244;2023-03-14T07:38:44;14.30;99.90
41944;DHT22;27636;52.610;13.244;2023-03-14T07:44:00;14.20;99.90
41944;DHT22;27636;52.610;13.244;2023-03-14T07:49:05;13.60;99.90
41944;DHT22;27636;52.610;13.244;2023-03-14T07:54:10;14.70;99.90
41944;DHT22;27636;52.610;13.244;2023-03-14T07:59:13;16.00;99.90
41944;DHT22;27636;52.610;13.244;2023-03-14T08:04:17;16.80;97.50
41944;DHT22;27636;52.610;13.244;2023-03-14T08:09:22;16.60;95.50
41944;DHT22;27636;52.610;13.244;2023-03-14T08:14:27;16.00;96.70
41944;DHT22;27636;52.610;13.244;2023-03-14T08:19:32;15.30;97.90
41944;DHT22;27636;52.610;13.244;2023-03-14T08:24:37;14.40;99.80
41944;DHT22;27636;52.610;13.244;2023-03-14T08:29:41;13.80;99.90
41944;DHT22;27636;52.610;13.244;2023-03-14T08:34:46;13.40;99.90
41944;DHT22;27636;52.610;13.244;2023-03-14T08:39:52;13.30;99.90
41944;DHT22;27636;52.610;13.244;2023-03-14T08:44:56;13.00;99.90
41944;DHT22;27636;52.610;13.244;2023-03-14T08:50:00;12.80;99.90
41944;DHT22;27636;52.610;13.244;2023-03-14T08:55:07;13.10;99.90
41944;DHT22;27636;52.610;13.244;2023-03-14T09:00:12;13.80;99.90
41944;DHT22;27636;52.610;13.244;2023-03-14T09:05:20;14.20;99.90
41944;DHT22;27636;52.610;13.244;2023-03-14T09:10:25;14.90;99.90
41944;DHT22;27636;52.610;13.244;2023-03-14T09:15:29;15.00;99.90
41944;DHT22;27636;52.610;13.244;2023-03-14T09:20:32;16.10;99.90
41944;DHT22;27636;52.610;13.244;2023-03-14T09:25:37;18.50;93.40
41944;DHT22;27636;52.610;13.244;2023-03-14T09:30:40;19.50;86.60
41944;DHT22;27636;52.610;13.244;2023-03-14T09:35:44;19.60;85.70
41944;DHT22;27636;52.610;13.244;2023-03-14T09:40:49;18.10;86.20
41944;DHT22;27636;52.610;13.244;2023-03-14T09:45:53;17.80;88.00
41944;DHT22;27636;52.610;13.244;2023-03-14T09:51:00;17.20;90.90
41944;DHT22;27636;52.610;13.244;2023-03-14T09:56:13;16.40;90.70
41944;DHT22;27636;52.610;13.244;2023-03-14T10:01:22;15.90;91.90
41944;DHT22;27636;52.610;13.244;2023-03-14T10:06:29;15.90;92.90
41944;DHT22;27636;52.610;13.244;2023-03-14T10:11:35;15.80;92.10
41944;DHT22;27636;52.610;13.244;2023-03-14T10:16:41;16.10;93.00
41944;DHT22;27636;52.610;13.244;2023-03-14T10:21:51;15.80;92.70
41944;DHT22;27636;52.610;13.244;2023-03-14T10:26:59;15.10;92.80
41944;DHT22;27636;52.610;13.244;2023-03-14T10:32:10;14.70;94.20
41944;DHT22;27636;52.610;13.244;2023-03-14T10:37:24;14.40;94.00
41944;DHT22;27636;52.610;13.244;2023-03-14T10:42:31;14.40;93.60
41944;DHT22;27636;52.610;13.244;2023-03-14T10:47:48;14.40;94.30
41944;DHT22;27636;52.610;13.244;2023-03-14T10:52:54;14.30;94.60
41944;DHT22;27636;52.610;13.244;2023-03-14T10:58:18;14.20;95.30
41944;DHT22;27636;52.610;13.244;2023-03-14T11:03:22;14.00;95.90
41944;DHT22;27636;52.610;13.244;2023-03-14T11:08:31;13.90;95.90
41944;DHT22;27636;52.610;13.244;2023-03-14T11:13:43;14.00;96.00
41944;DHT22;27636;52.610;13.244;2023-03-14T11:19:00;13.90;96.60
41944;DHT22;27636;52.610;13.244;2023-03-14T11:24:19;13.90;96.20
41944;DHT22;27636;52.610;13.244;2023-03-14T11:29:35;14.00;96.50
41944;DHT22;27636;52.610;13.244;2023-03-14T11:34:48;14.10;96.00
41944;DHT22;27636;52.610;13.244;2023-03-14T11:39:59;14.30;95.60
41944;DHT22;27636;52.610;13.244;2023-03-14T11:45:14;14.20;95.60
41944;DHT22;27636;52.610;13.244;2023-03-14T11:50:24;14.30;96.90
41944;DHT22;27636;52.610;13.244;2023-03-14T11:55:32;14.20;96.70
41944;DHT22;27636;52.610;13.244;2023-03-14T12:00:38;14.20;96.80
41944;DHT22;27636;52.610;13.244;2023-03-14T12:05:48;13.90;99.90
41944;DHT22;27636;52.610;13.244;2023-03-14T12:10:59;13.00;99.90
41944;DHT22;27636;52.610;13.244;2023-03-14T12:16:07;12.40;99.90
41944;DHT22;27636;52.610;13.244;2023-03-14T12:21:14;12.30;99.90
41944;DHT22;27636;52.610;13.244;2023-03-14T12:26:20;12.80;99.90
41944;DHT22;27636;52.610;13.244;2023-03-14T12:31:42;13.70;99.90
41944;DHT22;27636;52.610;13.244;2023-03-14T12:42:35;15.20;99.90
41944;DHT22;27636;52.610;13.244;2023-03-14T12:47:56;15.30;99.90
41944;DHT22;27636;52.610;13.244;2023-03-14T12:59:10;14.00;99.90
41944;DHT22;27636;52.610;13.244;2023-03-14T13:04:27;14.00;99.90
41944;DHT22;27636;52.610;13.244;2023-03-14T13:10:00;14.30;99.90
41944;DHT22;27636;52.610;13.244;2023-03-14T13:15:17;14.60;99.90
41944;DHT22;27636;52.610;13.244;2023-03-14T13:20:28;15.10;99.90
41944;DHT22;27636;52.610;13.244;2023-03-14T13:25:35;16.80;99.90
41944;DHT22;27636;52.610;13.244;2023-03-14T13:30:41;17.60;98.80
41944;DHT22;27636;52.610;13.244;2023-03-14T13:35:48;18.50;94.00
41944;DHT22;27636;52.610;13.244;2023-03-14T13:40:54;18.00;93.70
41944;DHT22;27636;52.610;13.244;2023-03-14T13:46:04;17.80;93.00
41944;DHT22;27636;52.610;13.244;2023-03-14T13:51:13;16.70;94.60
41944;DHT22;27636;52.610;13.244;2023-03-14T13:56:18;16.20;95.70
41944;DHT22;27636;52.610;13.244;2023-03-14T14:01:23;16.30;95.40
41944;DHT22;27636;52.610;13.244;2023-03-14T14:06:34;16.60;95.60
41944;DHT22;27636;52.610;13.244;2023-03-14T14:11:43;16.50;95.00
41944;DHT22;27636;52.610;13.244;2023-03-14T14:17:09;16.90;92.90
41944;DHT22;27636;52.610;13.244;2023-03-14T14:22:15;16.50;93.10
41944;DHT22;27636;52.610;13.244;2023-03-14T14:27:27;16.10;93.40
41944;DHT22;27636;52.610;13.244;2023-03-14T14:32:36;16.00;93.50
41944;DHT22;27636;52.610;13.244;2023-03-14T14:37:43;15.40;95.20
41944;DHT22;27636;52.610;13.244;2023-03-14T14:42:48;14.70;97.80
41944;DHT22;27636;52.610;13.244;2023-03-14T14:47:53;13.30;99.90
41944;DHT22;27636;52.610;13.244;2023-03-14T14:53:01;12.30;99.90
41944;DHT22;27636;52.610;13.244;2023-03-14T14:58:18;12.00;99.90
41944;DHT22;27636;52.610;13.244;2023-03-14T15:03:30;11.90;99.90
41944;DHT22;27636;52.610;13.244;2023-03-14T15:08:37;11.60;99.90
41944;DHT22;27636;52.610;13.244;2023-03-14T15:13:41;9.50;99.90
41944;DHT22;27636;52.610;13.244;2023-03-14T15:18:47;7.70;99.90
41944;DHT22;27636;52.610;13.244;2023-03-14T15:23:54;7.00;99.90
41944;DHT22;27636;52.610;13.244;2023-03-14T15:28:58;6.50;99.90
41944;DHT22;27636;52.610;13.244;2023-03-14T15:34:02;6.40;99.90
41944;DHT22;27636;52.610;13.244;2023-03-14T15:39:10;5.90;99.90
41944;DHT22;27636;52.610;13.244;2023-03-14T15:44:14;5.30;99.90
41944;DHT22;27636;52.610;13.244;2023-03-14T15:49:18;5.10;99.90
41944;DHT22;27636;52.610;13.244;2023-03-14T15:54:23;4.80;99.90
41944;DHT22;27636;52.610;13.244;2023-03-14T15:59:32;4.50;99.90
41944;DHT22;27636;52.610;13.244;2023-03-14T16:04:35;4.30;99.90
41944;DHT22;27636;52.610;13.244;2023-03-14T16:09:40;3.80;99.90
41944;DHT22;27636;52.610;13.244;2023-03-14T16:14:47;3.40;99.90
41944;DHT22;27636;52.610;13.244;2023-03-14T16:19:50;3.20;99.90
41944;DHT22;27636;52.610;13.244;2023-03-14T16:24:55;3.00;99.90
41944;DHT22;27636;52.610;13.244;2023-03-14T16:29:59;2.60;99.90
41944;DHT22;27636;52.610;13.244;2023-03-14T16:35:03;2.40;99.90
41944;DHT22;27636;52.610;13.244;2023-03-14T16:40:10;2.30;99.90
41944;DHT22;27636;52.610;13.244;2023-03-14T16:45:16;2.40;99.90
41944;DHT22;27636;52.610;13.244;2023-03-14T16:50:19;2.50;99.90
41944;DHT22;27636;52.610;13.244;2023-03-14T16:55:24;2.60;99.90
41944;DHT22;27636;52.610;13.244;2023-03-14T17:00:27;2.60;99.90
41944;DHT22;27636;52.610;13.244;2023-03-14T17:05:32;2.70;99.90
41944;DHT22;27636;52.610;13.244;2023-03-14T17:10:37;2.60;99.90
41944;DHT22;27636;52.610;13.244;2023-03-14T17:15:45;2.60;99.90
41944;DHT22;27636;52.610;13.244;2023-03-14T17:20:50;2.80;99.90
41944;DHT22;27636;52.610;13.244;2023-03-14T17:25:55;2.90;99.90
41944;DHT22;27636;52.610;13.244;2023-03-14T17:31:04;2.90;99.90
41944;DHT22;27636;52.610;13.244;2023-03-14T17:36:09;3.00;99.90
41944;DHT22;27636;52.610;13.244;2023-03-14T17:41:16;3.10;99.90
41944;DHT22;27636;52.610;13.244;2023-03-14T17:46:21;3.20;99.90
41944;DHT22;27636;52.610;13.244;2023-03-14T17:51:24;3.30;99.90
41944;DHT22;27636;52.610;13.244;2023-03-14T17:56:29;3.30;99.90
41944;DHT22;27636;52.610;13.244;2023-03-14T18:01:33;3.30;99.90
41944;DHT22;27636;52.610;13.244;2023-03-14T18:06:37;3.30;99.90
41944;DHT22;27636;52.610;13.244;2023-03-14T18:11:42;3.30;99.90
41944;DHT22;27636;52.610;13.244;2023-03-14T18:16:46;3.40;99.90
41944;DHT22;27636;52.610;13.244;2023-03-14T18:21:52;3.50;99.90
41944;DHT22;27636;52.610;13.244;2023-03-14T18:26:57;3.50;99.90
41944;DHT22;27636;52.610;13.244;2023-03-14T18:32:01;3.50;99.90
41944;DHT22;27636;52.610;13.244;2023-03-14T18:37:05;3.50;99.90
41944;DHT22;27636;52.610;13.244;2023-03-14T18:42:11;3.50;99.90
41944;DHT22;27636;52.610;13.244;2023-03-14T18:47:15;3.40;99.90
41944;DHT22;27636;52.610;13.244;2023-03-14T18:52:18;3.50;99.90
41944;DHT22;27636;52.610;13.244;2023-03-14T18:57:24;3.40;99.90
41944;DHT22;27636;52.610;13.244;2023-03-14T19:02:28;3.40;99.90
41944;DHT22;27636;52.610;13.244;2023-03-14T19:07:32;3.30;99.90
41944;DHT22;27636;52.610;13.244;2023-03-14T19:12:37;3.30;99.90
41944;DHT22;27636;52.610;13.244;2023-03-14T19:17:41;3.10;99.90
41944;DHT22;27636;52.610;13.244;2023-03-14T19:22:44;3.40;99.90
41944;DHT22;27636;52.610;13.244;2023-03-14T19:27:50;3.50;99.90
41944;DHT22;27636;52.610;13.244;2023-03-14T19:32:53;3.30;99.90
41944;DHT22;27636;52.610;13.244;2023-03-14T19:37:57;3.30;99.90
41944;DHT22;27636;52.610;13.244;2023-03-14T19:43:02;3.20;99.90
41944;DHT22;27636;52.610;13.244;2023-03-14T19:48:05;3.20;99.90
41944;DHT22;27636;52.610;13.244;2023-03-14T19:53:10;3.10;99.90
41944;DHT22;27636;52.610;13.244;2023-03-14T19:58:15;3.00;99.90
41944;DHT22;27636;52.610;13.244;2023-03-14T20:03:19;2.90;99.90
41944;DHT22;27636;52.610;13.244;2023-03-14T20:08:26;2.80;99.90
41944;DHT22;27636;52.610;13.244;2023-03-14T20:13:31;2.70;99.90
41944;DHT22;27636;52.610;13.244;2023-03-14T20:18:35;2.60;99.90
41944;DHT22;27636;52.610;13.244;2023-03-14T20:23:39;2.50;99.90
41944;DHT22;27636;52.610;13.244;2023-03-14T20:28:47;2.40;99.90
41944;DHT22;27636;52.610;13.244;2023-03-14T20:33:51;2.40;99.90
41944;DHT22;27636;52.610;13.244;2023-03-14T20:38:55;2.20;99.90
41944;DHT22;27636;52.610;13.244;2023-03-14T20:44:00;2.20;99.90
41944;DHT22;27636;52.610;13.244;2023-03-14T20:49:04;2.30;99.90
41944;DHT22;27636;52.610;13.244;2023-03-14T20:54:10;2.30;99.90
41944;DHT22;27636;52.610;13.244;2023-03-14T20:59:17;2.20;99.90
41944;DHT22;27636;52.610;13.244;2023-03-14T21:04:21;2.10;99.90
41944;DHT22;27636;52.610;13.244;2023-03-14T21:09:26;2.10;99.90
41944;DHT22;27636;52.610;13.244;2023-03-14T21:14:31;1.90;99.90
41944;DHT22;27636;52.610;13.244;2023-03-14T21:19:35;2.00;99.90
41944;DHT22;27636;52.610;13.244;2023-03-14T21:24:39;2.00;99.90
41944;DHT22;27636;52.610;13.244;2023-03-14T21:29:44;1.90;99.90
41944;DHT22;27636;52.610;13.244;2023-03-14T21:34:49;1.60;99.90
41944;DHT22;27636;52.610;13.244;2023-03-14T21:39:53;1.50;99.90
41944;DHT22;27636;52.610;13.244;2023-03-14T21:44:59;1.50;99.90
41944;DHT22;27636;52.610;13.244;2023-03-14T21:50:04;1.30;99.90
41944;DHT22;27636;52.610;13.244;2023-03-14T21:55:09;1.30;99.90
41944;DHT22;27636;52.610;13.244;2023-03-14T22:00:17;1.10;99.90
41944;DHT22;27636;52.610;13.244;2023-03-14T22:05:22;1.10;99.90
41944;DHT22;27636;52.610;13.244;2023-03-14T22:10:26;0.90;99.90
41944;DHT22;27636;52.610;13.244;2023-03-14T22:15:31;1.00;99.90
41944;DHT22;27636;52.610;13.244;2023-03-14T22:20:34;1.20;99.90
41944;DHT22;27636;52.610;13.244;2023-03-14T22:25:39;1.10;99.90
41944;DHT22;27636;52.610;13.244;2023-03-14T22:30:46;1.00;99.90
41944;DHT22;27636;52.610;13.244;2023-03-14T22:35:51;1.00;99.90
41944;DHT22;27636;52.610;13.244;2023-03-14T22:40:58;1.10;99.90
41944;DHT22;27636;52.610;13.244;2023-03-14T22:46:05;1.10;99.90
41944;DHT22;27636;52.610;13.244;2023-03-14T22:51:10;0.90;99.90
41944;DHT22;27636;52.610;13.244;2023-03-14T22:56:15;0.90;99.90
41944;DHT22;27636;52.610;13.244;2023-03-14T23:01:20;1.10;99.90
41944;DHT22;27636;52.610;13.244;2023-03-14T23:06:24;1.10;99.90
41944;DHT22;27636;52.610;13.244;2023-03-14T23:11:28;1.00;99.90
41944;DHT22;27636;52.610;13.244;2023-03-14T23:16:33;0.90;99.90
41944;DHT22;27636;52.610;13.244;2023-03-14T23:21:43;0.80;99.90
41944;DHT22;27636;52.610;13.244;2023-03-14T23:26:48;0.60;99.90
41944;DHT22;27636;52.610;13.244;2023-03-14T23:31:53;0.80;99.90
41944;DHT22;27636;52.610;13.244;2023-03-14T23:36:57;0.80;99.90
41944;DHT22;27636;52.610;13.244;2023-03-14T23:42:01;0.80;99.90
41944;DHT22;27636;52.610;13.244;2023-03-14T23:47:08;0.60;99.90
41944;DHT22;27636;52.610;13.244;2023-03-14T23:52:12;0.70;99.90
41944;DHT22;27636;52.610;13.244;2023-03-14T23:57:16;0.70;99.90
